Time,TemperatureF,DewpointF,PressureIn,WindDirection,WindDirectionDegrees,WindSpeedMPH,WindSpeedGustMPH,Humidity,HourlyPrecipIn,Conditions,Clouds,dailyrainin,SolarRadiationWatts/m^2,SoftwareType,DateUTC
2013-09-10 00:01:00,51.0,51.0,-100.00,NE,54,1.0,4.0,99,0.00,,,0.29,0.000000,,2013-09-10 07:01:00,
2013-09-10 00:12:00,51.0,51.0,-100.00,NE,54,1.0,4.0,99,0.00,,,0.29,0.000000,,2013-09-10 07:12:00,
2013-09-10 00:42:00,51.0,51.0,-100.00,SE,137,1.0,3.0,99,0.00,,,0.29,0.000000,,2013-09-10 07:42:00,
2013-09-10 00:52:00,51.0,51.0,-100.00,SE,137,1.0,3.0,99,0.00,,,0.29,0.000000,,2013-09-10 07:52:00,
2013-09-10 01:02:00,51.0,51.0,-100.00,SE,137,1.0,3.0,99,0.00,,,0.29,0.000000,,2013-09-10 08:02:00,
2013-09-10 01:11:00,51.0,51.0,-100.00,SE,137,1.0,3.0,99,0.00,,,0.29,0.000000,,2013-09-10 08:11:00,
2013-09-10 01:42:00,52.0,52.0,-100.00,SE,130,1.0,2.0,99,0.00,,,0.29,0.000000,,2013-09-10 08:42:00,
2013-09-10 01:52:00,52.0,52.0,-100.00,SE,130,1.0,2.0,99,0.00,,,0.29,0.000000,,2013-09-10 08:52:00,
2013-09-10 02:02:00,52.0,52.0,-100.00,SE,130,1.0,2.0,99,0.00,,,0.29,0.000000,,2013-09-10 09:02:00,
2013-09-10 02:11:00,52.0,52.0,-100.00,SE,130,1.0,2.0,99,0.00,,,0.29,0.000000,,2013-09-10 09:11:00,
2013-09-10 02:43:00,53.0,53.0,-100.00,NE,45,0.0,3.0,99,0.00,,,0.27,0.000000,,2013-09-10 09:43:00,
2013-09-10 02:54:00,53.0,53.0,-100.00,NE,45,0.0,3.0,99,0.00,,,0.27,0.000000,,2013-09-10 09:54:00,
2013-09-10 03:03:00,53.0,53.0,-100.00,NE,45,0.0,3.0,99,0.00,,,0.27,0.000000,,2013-09-10 10:03:00,
2013-09-10 03:13:00,53.0,53.0,-100.00,NE,45,0.0,3.0,99,0.00,,,0.27,0.000000,,2013-09-10 10:13:00,
2013-09-10 03:43:00,53.0,53.0,-100.00,SSW,204,2.0,5.0,99,0.00,,,-99.99,0.000000,,2013-09-10 10:43:00,
2013-09-10 03:53:00,53.0,53.0,-100.00,SSW,204,2.0,5.0,99,0.00,,,-99.99,0.000000,,2013-09-10 10:53:00,
2013-09-10 04:03:00,53.0,53.0,-100.00,SSW,204,2.0,5.0,99,0.00,,,-99.99,0.000000,,2013-09-10 11:03:00,
2013-09-10 04:11:00,53.0,53.0,-100.00,SSW,204,2.0,5.0,99,0.00,,,-99.99,0.000000,,2013-09-10 11:11:00,
2013-09-10 06:52:00,53.0,52.0,-100.00,SSW,203,4.0,7.0,97,-99.99,,,-99.99,0.000000,,2013-09-10 13:52:00,
2013-09-10 07:02:00,53.0,52.0,-100.00,SSW,203,4.0,7.0,97,-99.99,,,-99.99,0.000000,,2013-09-10 14:02:00,
2013-09-10 07:11:00,53.0,52.0,-100.00,SSW,203,4.0,7.0,97,-99.99,,,-99.99,0.000000,,2013-09-10 14:11:00,
2013-09-10 07:42:00,54.0,53.0,-100.00,ESE,111,6.0,8.0,97,0.00,,,0.27,34.000000,,2013-09-10 14:42:00,
2013-09-10 07:52:00,54.0,53.0,-100.00,ESE,111,6.0,8.0,97,0.00,,,0.27,34.000000,,2013-09-10 14:52:00,
2013-09-10 08:02:00,54.0,53.0,-100.00,ESE,111,6.0,8.0,97,0.00,,,0.27,34.000000,,2013-09-10 15:02:00,
2013-09-10 08:11:00,54.0,53.0,-100.00,ESE,111,6.0,8.0,97,0.00,,,0.27,34.000000,,2013-09-10 15:11:00,
2013-09-10 08:43:00,57.0,53.0,-100.00,SE,138,7.0,10.0,85,0.00,,,0.27,208.000000,,2013-09-10 15:43:00,
2013-09-10 08:54:00,57.0,53.0,-100.00,SE,138,7.0,10.0,85,0.00,,,0.27,208.000000,,2013-09-10 15:54:00,
2013-09-10 09:03:00,57.0,53.0,-100.00,SE,138,7.0,10.0,85,0.00,,,0.27,208.000000,,2013-09-10 16:03:00,
2013-09-10 09:12:00,57.0,53.0,-100.00,SE,138,7.0,10.0,85,0.00,,,0.27,208.000000,,2013-09-10 16:12:00,
2013-09-10 09:43:00,60.0,53.0,-100.00,SSE,157,5.0,10.0,78,0.00,,,0.25,269.000000,,2013-09-10 16:43:00,
2013-09-10 09:53:00,60.0,53.0,-100.00,SSE,157,5.0,10.0,78,0.00,,,0.25,269.000000,,2013-09-10 16:53:00,
2013-09-10 10:03:00,60.0,53.0,-100.00,SSE,157,5.0,10.0,78,0.00,,,0.25,269.000000,,2013-09-10 17:03:00,
2013-09-10 10:12:00,60.0,53.0,-100.00,SSE,157,5.0,10.0,78,0.00,,,0.25,269.000000,,2013-09-10 17:12:00,
2013-09-10 10:43:00,62.0,53.0,-100.00,SSE,168,7.0,12.0,72,0.00,,,0.14,441.000000,,2013-09-10 17:43:00,
2013-09-10 10:52:00,62.0,53.0,-100.00,SSE,168,7.0,12.0,72,0.00,,,0.14,441.000000,,2013-09-10 17:52:00,
2013-09-10 11:02:00,62.0,53.0,-100.00,SSE,168,7.0,12.0,72,0.00,,,0.14,441.000000,,2013-09-10 18:02:00,
2013-09-10 11:12:00,62.0,53.0,-100.00,SSE,168,7.0,12.0,72,0.00,,,0.14,441.000000,,2013-09-10 18:12:00,
2013-09-10 11:43:00,61.0,51.0,-100.00,South,184,8.0,14.0,70,0.00,,,0.08,405.000000,,2013-09-10 18:43:00,
2013-09-10 11:52:00,61.0,51.0,-100.00,South,184,8.0,14.0,70,0.00,,,0.08,405.000000,,2013-09-10 18:52:00,
2013-09-10 12:02:00,61.0,51.0,-100.00,South,184,8.0,14.0,70,0.00,,,0.08,405.000000,,2013-09-10 19:02:00,
2013-09-10 12:11:00,61.0,51.0,-100.00,South,184,8.0,14.0,70,0.00,,,0.08,405.000000,,2013-09-10 19:11:00,
2013-09-10 12:42:00,59.0,53.0,-100.00,South,176,7.0,14.0,81,0.00,,,0.05,249.000000,,2013-09-10 19:42:00,
2013-09-10 12:52:00,59.0,53.0,-100.00,South,176,7.0,14.0,81,0.00,,,0.05,249.000000,,2013-09-10 19:52:00,
2013-09-10 13:02:00,59.0,53.0,-100.00,South,176,7.0,14.0,81,0.00,,,0.05,249.000000,,2013-09-10 20:02:00,
2013-09-10 13:11:00,59.0,53.0,-100.00,South,176,7.0,14.0,81,0.00,,,0.05,249.000000,,2013-09-10 20:11:00,
2013-09-10 13:42:00,62.0,53.0,-100.00,South,175,9.0,17.0,72,0.00,,,0.04,509.000000,,2013-09-10 20:42:00,
2013-09-10 13:52:00,62.0,53.0,-100.00,South,175,9.0,17.0,72,0.00,,,0.04,509.000000,,2013-09-10 20:52:00,
2013-09-10 14:02:00,62.0,53.0,-100.00,South,175,9.0,17.0,72,0.00,,,0.04,509.000000,,2013-09-10 21:02:00,
2013-09-10 14:11:00,62.0,53.0,-100.00,South,175,9.0,17.0,72,0.00,,,0.04,509.000000,,2013-09-10 21:11:00,
2013-09-10 14:44:00,62.0,54.0,-100.00,SE,144,11.0,19.0,76,0.00,,,0.01,524.000000,,2013-09-10 21:44:00,
2013-09-10 14:54:00,62.0,54.0,-100.00,SE,144,11.0,19.0,76,0.00,,,0.01,524.000000,,2013-09-10 21:54:00,
2013-09-10 15:04:00,62.0,54.0,-100.00,SE,144,11.0,19.0,76,0.00,,,0.01,524.000000,,2013-09-10 22:04:00,
2013-09-10 15:13:00,62.0,54.0,-100.00,SE,144,11.0,19.0,76,0.00,,,0.01,524.000000,,2013-09-10 22:13:00,
2013-09-10 15:42:00,63.0,52.0,-100.00,South,173,9.0,16.0,68,0.00,,,0.00,663.000000,,2013-09-10 22:42:00,
2013-09-10 15:54:00,63.0,52.0,-100.00,South,173,9.0,16.0,68,0.00,,,0.00,663.000000,,2013-09-10 22:54:00,
2013-09-10 16:03:00,63.0,52.0,-100.00,South,173,9.0,16.0,68,0.00,,,0.00,663.000000,,2013-09-10 23:03:00,
2013-09-10 16:13:00,63.0,52.0,-100.00,South,173,9.0,16.0,68,0.00,,,0.00,663.000000,,2013-09-10 23:13:00,
2013-09-10 16:42:00,59.0,51.0,-100.00,SSW,207,5.0,14.0,75,0.00,,,0.00,143.000000,,2013-09-10 23:42:00,
2013-09-10 16:53:00,59.0,51.0,-100.00,SSW,207,5.0,14.0,75,0.00,,,0.00,143.000000,,2013-09-10 23:53:00,
2013-09-10 17:02:00,59.0,51.0,-100.00,SSW,207,5.0,14.0,75,0.00,,,0.00,143.000000,,2013-09-11 00:02:00,
2013-09-10 17:11:00,59.0,51.0,-100.00,SSW,207,5.0,14.0,75,0.00,,,0.00,143.000000,,2013-09-11 00:11:00,
2013-09-10 17:42:00,55.0,54.0,-100.00,SSW,213,4.0,10.0,95,0.20,,,0.20,35.000000,,2013-09-11 00:42:00,
2013-09-10 17:52:00,55.0,54.0,-100.00,SSW,213,4.0,10.0,95,0.20,,,0.20,35.000000,,2013-09-11 00:52:00,
2013-09-10 18:01:00,55.0,54.0,-100.00,SSW,213,4.0,10.0,95,0.20,,,0.20,35.000000,,2013-09-11 01:01:00,
2013-09-10 18:11:00,55.0,54.0,-100.00,SSW,213,4.0,10.0,95,0.20,,,0.20,35.000000,,2013-09-11 01:11:00,
2013-09-10 18:42:00,54.0,53.0,-100.00,SSE,151,2.0,6.0,95,0.09,,,0.29,27.000000,,2013-09-11 01:42:00,
2013-09-10 18:53:00,54.0,53.0,-100.00,SSE,151,2.0,6.0,95,0.09,,,0.29,27.000000,,2013-09-11 01:53:00,
2013-09-10 19:02:00,54.0,53.0,-100.00,SSE,151,2.0,6.0,95,0.09,,,0.29,27.000000,,2013-09-11 02:02:00,
2013-09-10 19:11:00,54.0,53.0,-100.00,SSE,151,2.0,6.0,95,0.09,,,0.29,27.000000,,2013-09-11 02:11:00,
2013-09-10 19:43:00,54.0,53.0,-100.00,SE,128,5.0,8.0,97,0.00,,,0.29,4.000000,,2013-09-11 02:43:00,
2013-09-10 19:52:00,54.0,53.0,-100.00,SE,128,5.0,8.0,97,0.00,,,0.29,4.000000,,2013-09-11 02:52:00,
2013-09-10 20:02:00,54.0,53.0,-100.00,SE,128,5.0,8.0,97,0.00,,,0.29,4.000000,,2013-09-11 03:02:00,
2013-09-10 20:12:00,54.0,53.0,-100.00,SE,128,5.0,8.0,97,0.00,,,0.29,4.000000,,2013-09-11 03:12:00,
2013-09-10 20:45:00,54.0,53.0,-100.00,South,173,6.0,9.0,97,0.00,,,0.29,0.000000,,2013-09-11 03:45:00,
2013-09-10 20:54:00,54.0,53.0,-100.00,South,173,6.0,9.0,97,0.00,,,0.29,0.000000,,2013-09-11 03:54:00,
2013-09-10 21:04:00,54.0,53.0,-100.00,South,173,6.0,9.0,97,0.00,,,0.29,0.000000,,2013-09-11 04:04:00,
2013-09-10 21:14:00,54.0,53.0,-100.00,South,173,6.0,9.0,97,0.00,,,0.29,0.000000,,2013-09-11 04:14:00,
2013-09-10 21:44:00,54.0,53.0,-100.00,SE,136,3.0,6.0,97,0.00,,,0.29,0.000000,,2013-09-11 04:44:00,
2013-09-10 21:54:00,54.0,53.0,-100.00,SE,136,3.0,6.0,97,0.00,,,0.29,0.000000,,2013-09-11 04:54:00,
2013-09-10 22:03:00,54.0,53.0,-100.00,SE,136,3.0,6.0,97,0.00,,,0.29,0.000000,,2013-09-11 05:03:00,
2013-09-10 22:12:00,54.0,53.0,-100.00,SE,136,3.0,6.0,97,0.00,,,0.29,0.000000,,2013-09-11 05:12:00,
2013-09-10 22:43:00,54.0,53.0,-100.00,SSE,150,4.0,6.0,97,0.00,,,0.29,0.000000,,2013-09-11 05:43:00,
2013-09-10 22:53:00,54.0,53.0,-100.00,SSE,150,4.0,6.0,97,0.00,,,0.29,0.000000,,2013-09-11 05:53:00,
2013-09-10 23:02:00,54.0,53.0,-100.00,SSE,150,4.0,6.0,97,0.00,,,0.29,0.000000,,2013-09-11 06:02:00,
2013-09-10 23:12:00,54.0,53.0,-100.00,SSE,150,4.0,6.0,97,0.00,,,0.29,0.000000,,2013-09-11 06:12:00,
2013-09-10 23:42:00,54.0,53.0,-100.00,SSE,147,4.0,7.0,98,0.07,,,0.36,0.000000,,2013-09-11 06:42:00,
2013-09-10 23:52:00,54.0,53.0,-100.00,SSE,147,4.0,7.0,98,0.07,,,0.36,0.000000,,2013-09-11 06:52:00,